Acampo, California
Current Conditions -  °F | °C
As of 10:55 PM on Saturday 25 Oct 2014 (Local Time) from KSCK Reporting Station
Clear Clear  
Wind Chill: 61°   Ceiling: Unl
Heat Index: 61°   Visibility: 10mi
Dew Point: 54°   Wind: 9mph
Humidity: 78%   Direction: 270°W
Pressure: 30.12"   Gusts: NA
Location:  38.17°N, 121.28°W
Report Text: KSCK 260555Z AUTO 27008KT 10SM CLR 16/12 A3012 RMK AO2 SLP199 T01610122 10228 20150 51012
Loading
Personal Weather Stations






























Interactive Weather Map New forecast layout! Learn more

10-Day Weather Forecast

Advertisements
Track Severe Weather on mobile